createdAt,value
2018-11-02T00:03:21.075Z,93.70
2018-11-02T00:08:24.876Z,93.60
2018-11-02T00:13:43.304Z,93.30
2018-11-02T00:18:46.918Z,93.40
2018-11-02T00:23:50.464Z,93.40
2018-11-02T00:28:53.975Z,93.50
2018-11-02T00:33:57.513Z,93.40
2018-11-02T00:39:01.025Z,93.60
2018-11-02T00:44:05.068Z,93.60
2018-11-02T00:49:08.590Z,93.60
2018-11-02T00:54:12.132Z,93.60
2018-11-02T00:59:15.651Z,93.80
2018-11-02T01:04:19.270Z,93.70
2018-11-02T01:09:22.772Z,93.50
2018-11-02T01:14:26.278Z,93.50
2018-11-02T01:19:34.575Z,93.40
2018-11-02T01:24:38.179Z,93.30
2018-11-02T01:29:41.663Z,93.20
2018-11-02T01:34:45.236Z,92.70
2018-11-02T01:39:48.875Z,92.40
2018-11-02T01:44:52.392Z,91.90
2018-11-02T01:49:56.355Z,91.70
2018-11-02T01:55:00.180Z,91.30
2018-11-02T02:00:04.073Z,90.50
2018-11-02T02:05:08.036Z,90.30
2018-11-02T02:10:11.577Z,90.10
2018-11-02T02:15:15.075Z,90.00
2018-11-02T02:20:18.626Z,90.00
2018-11-02T02:25:22.382Z,89.30
2018-11-02T02:30:25.839Z,89.40
2018-11-02T02:35:29.408Z,89.10
2018-11-02T02:40:32.935Z,89.00
2018-11-02T02:45:36.487Z,88.40
2018-11-02T02:50:40.007Z,88.30
2018-11-02T02:55:43.650Z,88.90
2018-11-02T03:00:47.160Z,87.70
2018-11-02T03:05:50.759Z,87.10
2018-11-02T03:10:54.468Z,87.10
2018-11-02T03:15:58.345Z,87.30
2018-11-02T03:21:01.883Z,86.70
2018-11-02T03:26:05.744Z,86.40
2018-11-02T03:31:09.328Z,86.50
2018-11-02T03:36:12.878Z,86.60
2018-11-02T03:41:16.363Z,86.50
2018-11-02T03:46:19.862Z,86.10
2018-11-02T03:51:23.476Z,86.60
2018-11-02T03:56:27.270Z,86.20
2018-11-02T04:01:30.891Z,86.60
2018-11-02T04:06:34.329Z,87.30
2018-11-02T04:11:38.089Z,87.90
2018-11-02T04:16:41.595Z,88.10
2018-11-02T04:21:46.462Z,88.50
2018-11-02T04:26:50.011Z,88.40
2018-11-02T04:31:53.523Z,88.60
2018-11-02T04:36:57.104Z,89.00
2018-11-02T04:42:00.648Z,89.10
2018-11-02T04:47:04.436Z,89.20
2018-11-02T04:52:07.924Z,88.80
2018-11-02T04:57:11.600Z,88.90
2018-11-02T05:07:49.894Z,88.80
2018-11-02T05:12:53.905Z,88.70
2018-11-02T05:17:57.570Z,88.50
2018-11-02T05:23:02.313Z,88.20
2018-11-02T05:28:06.203Z,88.10
2018-11-02T05:33:09.826Z,88.50
2018-11-02T05:38:13.399Z,88.30
2018-11-02T05:43:17.156Z,88.10
2018-11-02T05:48:20.786Z,88.10
2018-11-02T05:53:25.411Z,88.70
2018-11-02T05:58:29.472Z,88.60
2018-11-02T06:03:32.999Z,87.80
2018-11-02T06:08:36.563Z,87.50
2018-11-02T06:13:40.074Z,87.80
2018-11-02T06:18:43.932Z,87.80
2018-11-02T06:23:47.423Z,87.70
2018-11-02T06:28:50.960Z,87.20
2018-11-02T06:33:54.574Z,87.70
2018-11-02T06:38:58.117Z,87.50
2018-11-02T06:44:01.648Z,87.30
2018-11-02T06:49:05.180Z,87.30
2018-11-02T06:54:09.032Z,88.40
2018-11-02T06:59:13.468Z,87.40
2018-11-02T07:04:16.924Z,88.00
2018-11-02T07:09:20.536Z,87.20
2018-11-02T07:14:24.049Z,87.30
2018-11-02T07:19:29.022Z,86.70
2018-11-02T07:24:33.229Z,86.80
2018-11-02T07:29:36.762Z,86.60
2018-11-02T07:34:40.292Z,86.00
2018-11-02T07:39:43.763Z,85.70
2018-11-02T07:44:47.272Z,85.30
2018-11-02T07:49:50.795Z,85.60
2018-11-02T07:54:54.307Z,85.30
2018-11-02T07:59:57.863Z,87.10
2018-11-02T08:05:01.432Z,90.00
2018-11-02T08:10:05.601Z,90.30
2018-11-02T08:15:11.801Z,90.70
2018-11-02T08:20:15.351Z,90.60
2018-11-02T08:25:19.041Z,90.70
2018-11-02T08:30:22.566Z,90.60
2018-11-02T08:35:26.070Z,90.60
2018-11-02T08:40:29.547Z,90.70
2018-11-02T08:45:32.998Z,90.80
2018-11-02T08:50:36.612Z,91.20
2018-11-02T08:55:40.013Z,91.00
2018-11-02T09:00:43.669Z,91.10
2018-11-02T09:05:47.266Z,91.10
2018-11-02T09:10:50.717Z,90.80
2018-11-02T09:15:54.255Z,90.20
2018-11-02T09:20:57.736Z,89.70
2018-11-02T09:26:01.250Z,88.80
2018-11-02T09:31:05.873Z,88.00
2018-11-02T09:36:09.429Z,87.40
2018-11-02T09:41:12.996Z,86.10
2018-11-02T09:46:16.490Z,85.30
2018-11-02T09:51:20.579Z,83.30
2018-11-02T09:56:24.097Z,84.70
2018-11-02T10:01:27.830Z,81.90
2018-11-02T10:06:31.342Z,81.30
2018-11-02T10:11:34.972Z,79.00
2018-11-02T10:16:38.637Z,77.60
2018-11-02T10:21:42.231Z,77.30
2018-11-02T10:26:46.117Z,73.60
2018-11-02T10:31:49.933Z,72.90
2018-11-02T10:36:54.233Z,72.40
2018-11-02T10:42:01.266Z,72.10
2018-11-02T10:47:07.221Z,71.70
2018-11-02T10:52:10.856Z,70.10
2018-11-02T10:57:14.474Z,69.10
2018-11-02T11:02:23.076Z,68.50
2018-11-02T11:07:26.731Z,68.50
2018-11-02T11:12:30.523Z,68.30
2018-11-02T11:17:34.264Z,65.20
2018-11-02T11:22:38.175Z,62.60
2018-11-02T11:27:41.700Z,64.70
2018-11-02T11:32:46.632Z,64.70
2018-11-02T11:37:50.192Z,64.70
2018-11-02T11:42:53.813Z,64.70
2018-11-02T11:47:57.556Z,64.40
2018-11-02T11:53:01.141Z,64.20
2018-11-02T11:58:04.896Z,65.10
2018-11-02T12:03:08.557Z,64.20
2018-11-02T12:08:12.040Z,64.80
2018-11-02T12:13:15.900Z,63.00
2018-11-02T12:18:19.512Z,62.40
2018-11-02T12:23:23.249Z,63.80
2018-11-02T12:28:26.727Z,63.60
2018-11-02T12:33:30.320Z,64.80
2018-11-02T12:38:33.798Z,65.00
2018-11-02T12:43:37.426Z,64.80
2018-11-02T12:48:41.182Z,66.30
2018-11-02T12:53:44.756Z,66.10
2018-11-02T12:58:48.262Z,67.20
2018-11-02T13:03:51.929Z,67.60
2018-11-02T13:08:55.411Z,66.50
2018-11-02T13:13:58.914Z,68.60
2018-11-02T13:19:02.629Z,68.30
2018-11-02T13:24:06.528Z,69.20
2018-11-02T13:29:10.228Z,68.50
2018-11-02T13:34:13.782Z,68.80
2018-11-02T13:39:17.649Z,67.20
2018-11-02T13:44:21.205Z,67.30
2018-11-02T13:49:24.848Z,67.20
2018-11-02T13:54:28.567Z,67.60
2018-11-02T13:59:32.219Z,66.90
2018-11-02T14:04:38.140Z,67.60
2018-11-02T14:09:41.670Z,66.60
2018-11-02T14:14:46.741Z,65.20
2018-11-02T14:19:51.460Z,65.80
2018-11-02T14:24:55.200Z,63.10
2018-11-02T14:29:58.757Z,61.80
2018-11-02T14:35:02.359Z,61.90
2018-11-02T14:40:07.835Z,62.90
2018-11-02T14:45:13.950Z,63.40
2018-11-02T14:50:17.469Z,63.00
2018-11-02T14:55:20.951Z,63.00
2018-11-02T15:00:24.444Z,64.10
2018-11-02T15:05:27.973Z,63.80
2018-11-02T15:10:31.452Z,64.30
2018-11-02T15:15:41.864Z,64.70
2018-11-02T15:20:45.398Z,64.60
2018-11-02T15:25:48.940Z,65.00
2018-11-02T15:30:52.491Z,65.20
2018-11-02T15:35:56.214Z,65.30
2018-11-02T15:40:59.911Z,66.70
2018-11-02T15:46:03.605Z,67.00
2018-11-02T15:51:07.235Z,66.50
2018-11-02T15:56:10.804Z,66.10
2018-11-02T16:01:14.465Z,65.80
2018-11-02T16:06:18.084Z,66.80
2018-11-02T16:11:21.616Z,67.20
2018-11-02T16:16:25.192Z,67.90
2018-11-02T16:21:28.738Z,68.70
2018-11-02T16:26:32.216Z,69.00
2018-11-02T16:31:36.170Z,69.40
2018-11-02T16:36:39.856Z,69.60
2018-11-02T16:41:43.372Z,70.30
2018-11-02T16:46:46.856Z,70.60
2018-11-02T16:51:50.911Z,70.90
2018-11-02T16:56:54.442Z,71.40
2018-11-02T17:01:58.179Z,71.80
2018-11-02T17:07:01.978Z,72.00
2018-11-02T17:13:09.102Z,72.80
2018-11-02T17:18:12.698Z,73.00
2018-11-02T17:23:23.304Z,73.50
2018-11-02T17:28:26.836Z,73.90
2018-11-02T17:33:30.596Z,74.10
2018-11-02T17:38:34.252Z,74.30
2018-11-02T17:43:38.228Z,74.50
2018-11-02T17:48:41.785Z,74.90
2018-11-02T17:53:48.315Z,73.50
2018-11-02T17:58:51.896Z,73.80
2018-11-02T18:03:55.412Z,74.40
2018-11-02T18:08:58.958Z,76.10
2018-11-02T18:14:02.552Z,76.50
2018-11-02T18:19:06.053Z,76.60
2018-11-02T18:24:09.773Z,77.70
2018-11-02T18:29:13.169Z,77.70
2018-11-02T18:34:16.696Z,77.90
2018-11-02T18:39:20.419Z,78.40
2018-11-02T18:44:23.978Z,79.00
2018-11-02T18:49:27.562Z,79.70
2018-11-02T18:54:31.102Z,80.20
2018-11-02T18:59:34.617Z,80.70
2018-11-02T19:04:38.121Z,80.90
2018-11-02T19:09:41.651Z,80.90
2018-11-02T19:14:45.262Z,81.00
2018-11-02T19:19:49.042Z,81.00
2018-11-02T19:24:52.683Z,81.00
2018-11-02T19:29:56.252Z,81.30
2018-11-02T19:35:00.263Z,81.30
2018-11-02T19:40:04.752Z,81.60
2018-11-02T19:45:09.677Z,81.70
2018-11-02T19:50:14.671Z,82.00
2018-11-02T19:55:18.238Z,82.50
2018-11-02T20:00:21.711Z,82.10
2018-11-02T20:05:25.330Z,82.30
2018-11-02T20:10:28.909Z,82.40
2018-11-02T20:15:32.473Z,82.50
2018-11-02T20:20:35.970Z,82.60
2018-11-02T20:25:39.636Z,82.50
2018-11-02T20:30:43.181Z,82.30
2018-11-02T20:35:46.749Z,82.20
2018-11-02T20:40:50.358Z,82.30
2018-11-02T20:45:53.844Z,82.30
2018-11-02T20:50:57.436Z,82.70
2018-11-02T20:56:01.106Z,82.80
2018-11-02T21:01:05.713Z,83.20
2018-11-02T21:06:09.489Z,83.30
2018-11-02T21:11:13.173Z,83.80
2018-11-02T21:16:16.714Z,84.00
2018-11-02T21:21:20.403Z,84.70
2018-11-02T21:26:23.920Z,85.20
2018-11-02T21:31:27.360Z,85.30
2018-11-02T21:36:30.846Z,85.20
2018-11-02T21:41:34.409Z,85.10
2018-11-02T21:46:37.901Z,84.90
2018-11-02T21:51:41.426Z,84.90
2018-11-02T21:56:45.175Z,84.90
2018-11-02T22:01:48.808Z,85.10
2018-11-02T22:06:52.947Z,82.80
2018-11-02T22:11:56.608Z,83.90
2018-11-02T22:17:00.304Z,84.90
2018-11-02T22:22:03.992Z,85.50
2018-11-02T22:27:07.545Z,86.40
2018-11-02T22:32:11.042Z,86.10
2018-11-02T22:37:14.591Z,86.60
2018-11-02T22:42:18.187Z,86.80
2018-11-02T22:47:21.956Z,86.80
2018-11-02T22:52:26.578Z,87.00
2018-11-02T22:57:30.107Z,87.10
2018-11-02T23:02:33.768Z,87.30
2018-11-02T23:07:37.230Z,88.00
2018-11-02T23:12:41.425Z,88.20
2018-11-02T23:17:45.018Z,88.80
2018-11-02T23:22:48.733Z,89.60
2018-11-02T23:27:52.261Z,89.80
2018-11-02T23:32:55.709Z,89.80
2018-11-02T23:37:59.445Z,89.80
2018-11-02T23:43:03.322Z,90.20
2018-11-02T23:48:12.500Z,90.40
2018-11-02T23:53:16.153Z,90.40
2018-11-02T23:58:19.927Z,90.30
